Time;durP1;ratioP1;P1;durP2;ratioP2;P2;SDS_P1;SDS_P2;PMS_P1;PMS_P2;Temp;Humidity;BMP_temperature;BMP_pressure;BME280_temperature;BME280_humidity;BME280_pressure;Samples;Min_cycle;Max_cycle;Signal;HPM_P1;HPM_P2
2024/04/17 00:00:04;;;;;;;22.57;21.57;;;19.90;65.00;;;;;;5453810;26;20226;-64
2024/04/17 00:02:33;;;;;;;22.47;21.37;;;20.00;65.10;;;;;;5452937;26;20495;-64
2024/04/17 00:05:01;;;;;;;21.50;20.70;;;19.90;64.90;;;;;;5453436;26;20890;-64
2024/04/17 00:07:30;;;;;;;22.20;21.30;;;19.90;64.90;;;;;;5463840;26;20816;-64
2024/04/17 00:09:56;;;;;;;22.47;21.67;;;19.90;64.90;;;;;;5490024;26;20911;-64
2024/04/17 00:12:24;;;;;;;22.40;21.50;;;19.90;65.00;;;;;;5489318;26;20467;-64
2024/04/17 00:14:50;;;;;;;22.80;21.90;;;19.90;65.00;;;;;;5489831;26;20213;-65
2024/04/17 00:17:18;;;;;;;22.57;21.57;;;19.90;65.00;;;;;;5456662;26;20535;-64
2024/04/17 00:19:44;;;;;;;22.37;21.50;;;19.90;64.90;;;;;;5453411;26;20225;-64
2024/04/17 00:22:15;;;;;;;22.27;21.37;;;19.90;65.00;;;;;;5452695;26;20511;-64
2024/04/17 00:24:41;;;;;;;23.00;22.00;;;19.80;65.00;;;;;;5453234;26;20222;-64
2024/04/17 00:27:09;;;;;;;21.97;21.17;;;19.80;65.00;;;;;;5483464;26;20556;-64
2024/04/17 00:29:35;;;;;;;22.37;21.50;;;19.80;65.00;;;;;;5489626;26;20602;-64
2024/04/17 00:32:05;;;;;;;22.17;21.27;;;19.80;65.00;;;;;;5489497;26;20457;-64
2024/04/17 00:34:31;;;;;;;22.73;21.83;;;19.80;64.90;;;;;;5488943;26;20331;-64
2024/04/17 00:36:59;;;;;;;22.30;21.40;;;19.80;64.90;;;;;;5489044;26;20478;-64
2024/04/17 00:39:27;;;;;;;22.70;21.70;;;19.80;65.00;;;;;;5489553;26;20221;-64
2024/04/17 00:41:56;;;;;;;22.23;21.33;;;19.90;65.00;;;;;;5489412;26;20786;-64
2024/04/17 00:44:22;;;;;;;23.10;22.10;;;19.80;64.90;;;;;;5488725;26;20555;-64
2024/04/17 00:46:51;;;;;;;22.40;21.50;;;19.80;64.90;;;;;;5465316;26;20463;-64
2024/04/17 00:49:17;;;;;;;22.50;21.60;;;19.80;65.00;;;;;;5452793;26;20226;-64
2024/04/17 00:51:46;;;;;;;22.50;21.50;;;19.80;65.00;;;;;;5452831;26;20456;-64
2024/04/17 00:54:12;;;;;;;22.43;21.43;;;19.80;65.00;;;;;;5461380;26;20442;-64
2024/04/17 00:56:43;;;;;;;22.40;21.60;;;19.80;65.00;;;;;;5489171;26;20568;-64
2024/04/17 00:59:10;;;;;;;22.30;21.40;;;19.80;65.10;;;;;;5489153;26;20506;-64
2024/04/17 01:01:38;;;;;;;23.13;22.23;;;19.80;65.00;;;;;;5489036;26;20976;-64
2024/04/17 01:04:04;;;;;;;22.00;21.10;;;19.80;65.10;;;;;;5481119;26;20463;-64
2024/04/17 01:06:33;;;;;;;22.83;21.93;;;19.80;65.20;;;;;;5452395;26;20447;-64
2024/04/17 01:08:58;;;;;;;23.00;22.10;;;19.80;65.20;;;;;;5452432;26;20264;-64
2024/04/17 01:11:27;;;;;;;22.97;21.97;;;19.70;65.10;;;;;;5454748;26;20813;-64
2024/04/17 01:13:55;;;;;;;22.60;21.63;;;19.70;65.20;;;;;;5452146;26;20218;-64
2024/04/17 01:16:24;;;;;;;23.30;22.07;;;19.70;65.10;;;;;;5452435;26;20463;-64
2024/04/17 01:18:50;;;;;;;23.10;22.20;;;19.70;65.00;;;;;;5457743;26;20469;-64
2024/04/17 01:21:19;;;;;;;23.10;22.17;;;19.70;64.90;;;;;;5488752;26;20575;-64
2024/04/17 01:23:52;;;;;;;23.03;22.13;;;19.70;64.80;;;;;;5488465;26;20458;-64
2024/04/17 01:26:21;;;;;;;22.40;21.30;;;19.70;64.80;;;;;;5489072;26;20505;-64
2024/04/17 01:28:47;;;;;;;23.07;22.10;;;19.70;64.80;;;;;;5483914;26;20471;-64
2024/04/17 01:31:15;;;;;;;22.50;21.60;;;19.70;64.80;;;;;;5452378;26;20455;-64
2024/04/17 01:33:41;;;;;;;22.50;21.70;;;19.70;64.80;;;;;;5451709;26;20252;-64
2024/04/17 01:36:11;;;;;;;22.23;21.23;;;19.70;64.90;;;;;;5452187;26;20452;-64
2024/04/17 01:38:37;;;;;;;23.00;22.10;;;19.70;64.90;;;;;;5453347;26;20242;-64
2024/04/17 01:41:08;;;;;;;23.87;22.73;;;19.70;64.90;;;;;;5488560;26;20454;-64
2024/04/17 01:43:34;;;;;;;22.80;21.90;;;19.70;65.00;;;;;;5487871;26;20316;-64
2024/04/17 01:46:03;;;;;;;22.57;21.67;;;19.70;65.10;;;;;;5488373;26;20872;-64
2024/04/17 01:48:28;;;;;;;22.63;21.73;;;19.70;65.10;;;;;;5488380;26;20332;-64
2024/04/17 01:50:57;;;;;;;22.10;21.20;;;19.70;65.10;;;;;;5487377;26;20969;-64
2024/04/17 01:53:23;;;;;;;22.37;21.47;;;19.70;65.10;;;;;;5487818;26;20256;-64
2024/04/17 01:55:51;;;;;;;22.30;21.23;;;19.60;65.10;;;;;;5488325;26;20458;-64
2024/04/17 01:58:19;;;;;;;22.93;21.93;;;19.60;65.10;;;;;;5488155;26;20228;-64
2024/04/17 02:00:48;;;;;;;23.20;22.20;;;19.60;65.00;;;;;;5455426;26;20467;-64
2024/04/17 02:03:14;;;;;;;22.30;21.50;;;19.60;65.00;;;;;;5451131;26;20499;-64
2024/04/17 02:05:42;;;;;;;31.80;30.50;;;19.60;65.00;;;;;;5458425;26;20458;-64
2024/04/17 02:08:08;;;;;;;22.30;21.43;;;19.60;65.00;;;;;;5476164;26;20813;-64
2024/04/17 02:10:36;;;;;;;23.13;22.23;;;19.60;65.00;;;;;;5476915;26;20473;-64
2024/04/17 02:13:02;;;;;;;22.53;21.63;;;19.60;64.90;;;;;;5487426;26;20738;-64
2024/04/17 02:15:34;;;;;;;22.77;21.87;;;19.60;64.90;;;;;;5483146;26;20478;-64
2024/04/17 02:17:59;;;;;;;22.60;21.70;;;19.60;64.90;;;;;;5450947;26;20467;-64
2024/04/17 02:20:28;;;;;;;23.10;22.10;;;19.60;64.90;;;;;;5451384;26;20509;-63
2024/04/17 02:22:54;;;;;;;22.97;22.07;;;19.60;64.90;;;;;;5450977;26;20214;-64
2024/04/17 02:25:22;;;;;;;27.53;26.43;;;19.60;64.90;;;;;;5460916;26;20597;-64
2024/04/17 02:27:48;;;;;;;26.83;25.70;;;19.60;64.90;;;;;;5451754;26;20230;-64
2024/04/17 02:30:16;;;;;;;26.50;25.50;;;19.60;65.00;;;;;;5451468;26;20581;-64
2024/04/17 02:32:44;;;;;;;27.97;26.87;;;19.60;65.00;;;;;;5450891;26;20218;-64
2024/04/17 02:35:13;;;;;;;26.90;25.90;;;19.60;64.90;;;;;;5460318;26;20471;-64
2024/04/17 02:37:39;;;;;;;26.80;25.80;;;19.60;65.00;;;;;;5462299;26;20517;-64
2024/04/17 02:40:08;;;;;;;27.20;26.20;;;19.60;64.90;;;;;;5487658;26;20457;-64
2024/04/17 02:42:34;;;;;;;27.60;26.47;;;19.60;64.90;;;;;;5486981;26;20213;-64
2024/04/17 02:45:03;;;;;;;27.60;26.60;;;19.60;64.90;;;;;;5465868;26;20464;-64
2024/04/17 02:47:30;;;;;;;28.00;26.90;;;19.60;64.80;;;;;;5450943;26;20455;-64
2024/04/17 02:50:01;;;;;;;28.57;27.47;;;19.60;64.90;;;;;;5451289;26;20847;-64
2024/04/17 02:52:27;;;;;;;27.70;26.70;;;19.60;64.90;;;;;;5450560;26;20564;-64
2024/04/17 02:54:56;;;;;;;27.63;26.53;;;19.50;64.80;;;;;;5469363;26;20458;-63
2024/04/17 02:57:21;;;;;;;26.80;25.80;;;19.60;65.00;;;;;;5487222;26;20259;-64
2024/04/17 02:59:50;;;;;;;27.33;26.33;;;19.60;65.00;;;;;;5487145;26;20462;-64
2024/04/17 03:02:15;;;;;;;28.87;27.67;;;19.50;64.90;;;;;;5486717;26;20217;-64
2024/04/17 03:04:44;;;;;;;28.43;27.23;;;19.50;65.00;;;;;;5471678;26;20463;-64
2024/04/17 03:07:12;;;;;;;28.83;27.63;;;19.50;65.00;;;;;;5450881;26;20213;-64
2024/04/17 03:09:40;;;;;;;28.40;27.30;;;19.50;65.00;;;;;;5450720;26;20945;-64
2024/04/17 03:12:07;;;;;;;32.80;31.50;;;19.50;65.00;;;;;;5450878;26;20503;-64
2024/04/17 03:14:35;;;;;;;23.80;22.80;;;19.50;65.00;;;;;;5452733;26;20467;-64
2024/04/17 03:17:01;;;;;;;24.13;23.10;;;19.50;65.00;;;;;;5450543;26;20458;-64
2024/04/17 03:19:30;;;;;;;24.77;23.73;;;19.50;64.90;;;;;;5450631;26;20585;-64
2024/04/17 03:21:56;;;;;;;24.13;23.13;;;19.50;64.90;;;;;;5450535;26;20229;-64
2024/04/17 03:24:27;;;;;;;24.00;22.93;;;19.50;64.90;;;;;;5459099;26;20589;-64
2024/04/17 03:26:55;;;;;;;23.40;22.50;;;19.50;65.00;;;;;;5486921;26;20213;-64
2024/04/17 03:29:24;;;;;;;24.13;23.13;;;19.50;64.90;;;;;;5486743;26;20980;-64
2024/04/17 03:31:50;;;;;;;23.90;23.00;;;19.50;65.00;;;;;;5489191;26;20563;-64
2024/04/17 03:34:18;;;;;;;24.33;23.33;;;19.50;65.00;;;;;;5457124;26;20467;-64
2024/04/17 03:36:47;;;;;;;24.40;23.40;;;19.50;65.10;;;;;;5454139;26;20834;-64
2024/04/17 03:39:16;;;;;;;23.90;22.77;;;19.50;65.10;;;;;;5453820;26;20475;-64
2024/04/17 03:41:48;;;;;;;24.70;23.50;;;19.50;65.00;;;;;;5454025;26;20502;-64
2024/04/17 03:44:14;;;;;;;23.60;22.70;;;19.50;64.90;;;;;;5484440;26;20806;-64
2024/04/17 03:46:42;;;;;;;24.07;23.07;;;19.50;64.80;;;;;;5490243;26;20569;-64
2024/04/17 03:49:11;;;;;;;24.10;22.90;;;19.50;64.70;;;;;;5490308;26;20271;-64
2024/04/17 03:51:37;;;;;;;23.60;22.60;;;19.50;64.70;;;;;;5490311;26;20450;-64
2024/04/17 03:54:05;;;;;;;24.10;23.10;;;19.50;64.70;;;;;;5488716;26;20514;-64
2024/04/17 03:56:31;;;;;;;24.60;23.60;;;19.50;64.60;;;;;;5490122;26;20250;-64
2024/04/17 03:59:02;;;;;;;24.17;23.17;;;19.50;64.70;;;;;;5489964;26;20462;-64
2024/04/17 04:01:27;;;;;;;24.07;23.07;;;19.50;64.70;;;;;;5490014;26;20224;-64
2024/04/17 04:03:56;;;;;;;24.90;23.90;;;19.50;64.70;;;;;;5463853;26;20475;-64
2024/04/17 04:06:22;;;;;;;25.57;24.57;;;19.50;64.90;;;;;;5453532;26;20218;-64
2024/04/17 04:08:50;;;;;;;26.00;24.90;;;19.50;64.90;;;;;;5453277;26;20527;-64
2024/04/17 04:11:16;;;;;;;27.27;26.07;;;19.50;65.00;;;;;;5453519;26;20650;-64
2024/04/17 04:13:44;;;;;;;25.83;24.73;;;19.50;65.10;;;;;;5455287;26;20463;-64
2024/04/17 04:16:12;;;;;;;25.53;24.43;;;19.50;65.20;;;;;;5453490;26;20249;-64
2024/04/17 04:18:41;;;;;;;26.47;25.37;;;19.50;65.30;;;;;;5453449;26;20468;-64
2024/04/17 04:21:07;;;;;;;26.33;25.33;;;19.50;65.30;;;;;;5453410;26;20531;-64
2024/04/17 04:23:35;;;;;;;26.20;25.10;;;19.50;65.30;;;;;;5470253;26;20571;-65
2024/04/17 04:26:01;;;;;;;25.07;23.97;;;19.40;65.30;;;;;;5489754;26;20316;-64
2024/04/17 04:28:29;;;;;;;26.43;25.30;;;19.50;65.30;;;;;;5489546;26;20834;-64
2024/04/17 04:30:55;;;;;;;25.77;24.77;;;19.50;65.20;;;;;;5489575;26;20221;-65
2024/04/17 04:33:26;;;;;;;27.40;26.40;;;19.50;65.30;;;;;;5474047;26;20523;-65
2024/04/17 04:35:52;;;;;;;27.30;26.20;;;19.50;66.00;;;;;;5455082;26;20802;-65
2024/04/17 04:38:20;;;;;;;26.83;25.73;;;19.50;65.40;;;;;;5453103;26;20530;-64
2024/04/17 04:40:46;;;;;;;26.37;25.37;;;19.50;65.40;;;;;;5455150;26;20225;-64
2024/04/17 04:43:14;;;;;;;27.00;25.90;;;19.50;65.50;;;;;;5451661;26;20456;-64
2024/04/17 04:45:40;;;;;;;26.00;24.73;;;19.40;65.40;;;;;;5457446;26;20345;-64
2024/04/17 04:48:09;;;;;;;26.00;24.77;;;19.50;65.80;;;;;;5452832;26;20483;-63
2024/04/17 04:50:37;;;;;;;26.30;25.10;;;19.40;65.90;;;;;;5452694;26;20252;-63
2024/04/17 04:53:06;;;;;;;25.90;24.80;;;19.40;65.90;;;;;;5452196;26;20464;-64
2024/04/17 04:55:32;;;;;;;27.73;26.57;;;19.40;65.80;;;;;;5452716;26;20451;-63
2024/04/17 04:58:01;;;;;;;26.60;25.40;;;19.40;65.70;;;;;;5452762;26;20468;-63
2024/04/17 05:00:26;;;;;;;31.03;29.73;;;19.40;65.50;;;;;;5452915;26;20260;-64
2024/04/17 05:02:55;;;;;;;30.97;29.47;;;19.40;66.10;;;;;;5451975;26;20455;-63
2024/04/17 05:05:20;;;;;;;26.57;25.33;;;19.30;65.10;;;;;;5452450;26;20256;-64
2024/04/17 05:10:17;;;;;;;26.80;25.60;;;19.40;65.00;;;;;;5510743;21;20345;-68
2024/04/17 05:12:43;;;;;;;26.40;25.40;;;19.30;64.80;;;;;;5488395;26;20229;-67
2024/04/17 05:15:11;;;;;;;28.70;27.40;;;19.30;64.70;;;;;;5488929;26;20462;-68
2024/04/17 05:17:37;;;;;;;26.77;25.67;;;19.30;64.60;;;;;;5488786;26;20226;-68
2024/04/17 05:20:05;;;;;;;26.90;25.70;;;19.30;64.50;;;;;;5454369;26;20528;-68
2024/04/17 05:22:31;;;;;;;27.80;26.40;;;19.30;64.40;;;;;;5451665;26;20342;-68
2024/04/17 05:25:00;;;;;;;28.57;27.37;;;19.30;64.20;;;;;;5452138;26;20577;-68
2024/04/17 05:27:28;;;;;;;28.47;27.17;;;19.30;64.10;;;;;;5452108;26;20467;-68
2024/04/17 05:29:56;;;;;;;26.60;25.30;;;19.30;64.00;;;;;;5451950;26;20464;-68
2024/04/17 05:32:22;;;;;;;25.77;24.57;;;19.30;63.90;;;;;;5451636;26;20829;-68
2024/04/17 05:34:50;;;;;;;25.43;24.33;;;19.30;63.80;;;;;;5452217;26;20516;-68
2024/04/17 05:37:16;;;;;;;25.00;24.00;;;19.30;63.70;;;;;;5452334;26;20222;-68
2024/04/17 05:39:45;;;;;;;26.13;25.03;;;19.30;63.60;;;;;;5451900;26;20884;-68
2024/04/17 05:42:10;;;;;;;24.80;23.60;;;19.30;63.40;;;;;;5452002;26;20765;-68
2024/04/17 05:44:42;;;;;;;25.33;24.23;;;19.30;63.40;;;;;;5451462;26;20463;-68
2024/04/17 05:47:07;;;;;;;25.37;24.37;;;19.30;63.30;;;;;;5451957;26;20230;-68
2024/04/17 05:49:36;;;;;;;24.37;23.37;;;19.30;63.30;;;;;;5451579;26;20846;-68
2024/04/17 05:52:02;;;;;;;24.80;23.80;;;19.30;63.20;;;;;;5451977;26;20226;-68
2024/04/17 05:54:30;;;;;;;24.83;23.83;;;19.30;63.10;;;;;;5449700;26;20517;-68
2024/04/17 05:56:56;;;;;;;25.00;24.00;;;19.30;63.00;;;;;;5451703;26;20347;-68
2024/04/17 05:59:25;;;;;;;25.57;24.47;;;19.30;63.00;;;;;;5451710;26;20471;-68
2024/04/17 06:01:54;;;;;;;25.43;24.40;;;19.30;62.90;;;;;;5451629;26;20471;-68
2024/04/17 06:04:23;;;;;;;26.17;24.97;;;19.30;62.90;;;;;;5451063;26;21111;-68
2024/04/17 06:06:49;;;;;;;25.70;24.70;;;19.30;62.80;;;;;;5451639;26;20459;-68
2024/04/17 06:09:17;;;;;;;27.30;26.03;;;19.30;62.70;;;;;;5451230;26;21069;-68
2024/04/17 06:11:43;;;;;;;28.07;26.60;;;19.30;62.60;;;;;;5451441;26;20226;-68
2024/04/17 06:14:11;;;;;;;27.07;25.97;;;19.30;62.60;;;;;;5450891;26;20585;-68
2024/04/17 06:16:37;;;;;;;26.60;25.40;;;19.30;62.50;;;;;;5451531;26;20751;-68
2024/04/17 06:19:08;;;;;;;26.73;25.53;;;19.30;62.50;;;;;;5451401;26;20870;-68
2024/04/17 06:21:34;;;;;;;26.90;25.80;;;19.30;62.50;;;;;;5451386;26;20499;-68
2024/04/17 06:24:03;;;;;;;27.60;26.40;;;19.30;62.40;;;;;;5450689;26;20536;-68
2024/04/17 06:26:31;;;;;;;27.57;26.27;;;19.30;62.40;;;;;;5451201;26;20226;-68
2024/04/17 06:28:57;;;;;;;27.00;25.90;;;19.20;62.30;;;;;;5451101;26;20798;-68
2024/04/17 06:31:27;;;;;;;26.77;25.67;;;19.20;62.20;;;;;;5451330;26;20519;-68
2024/04/17 06:33:53;;;;;;;27.20;26.10;;;19.30;62.20;;;;;;5436088;26;20277;-67
2024/04/17 06:36:24;;;;;;;27.70;26.60;;;19.20;62.10;;;;;;5451221;26;20580;-68
2024/04/17 06:38:50;;;;;;;27.23;26.07;;;19.30;62.10;;;;;;5450927;26;20234;-67
2024/04/17 06:41:18;;;;;;;27.07;25.70;;;19.20;62.00;;;;;;5451213;26;20534;-68
2024/04/17 06:43:44;;;;;;;27.37;26.27;;;19.30;62.00;;;;;;5450543;26;20670;-68
2024/04/17 06:46:12;;;;;;;27.97;26.43;;;19.30;61.90;;;;;;5451312;26;20470;-68
2024/04/17 06:48:38;;;;;;;26.90;25.80;;;19.20;61.70;;;;;;5450763;26;20260;-68
2024/04/17 06:51:07;;;;;;;27.00;25.90;;;19.20;61.70;;;;;;5451064;26;20475;-68
2024/04/17 06:53:35;;;;;;;26.70;25.60;;;19.20;61.60;;;;;;5450168;26;20230;-68
2024/04/17 06:56:03;;;;;;;25.97;24.97;;;19.20;61.50;;;;;;5450862;26;20464;-68
2024/04/17 06:58:29;;;;;;;26.93;25.80;;;19.20;61.40;;;;;;5450775;26;21005;-66
2024/04/17 07:00:58;;;;;;;26.00;25.00;;;19.20;61.40;;;;;;5450981;26;20468;-66
2024/04/17 07:03:23;;;;;;;26.70;25.60;;;19.20;61.40;;;;;;5450319;26;20542;-66
2024/04/17 07:06:02;;;;;;;26.80;25.60;;;19.20;61.40;;;;;;5453065;26;20985;-66
2024/04/17 07:08:28;;;;;;;28.17;27.07;;;19.20;61.40;;;;;;5453943;26;20229;-66
2024/04/17 07:10:59;;;;;;;27.33;26.23;;;19.10;61.20;;;;;;5454083;26;20524;-68
2024/04/17 07:13:25;;;;;;;27.53;26.43;;;19.20;61.30;;;;;;5453688;26;20225;-68
2024/04/17 07:15:55;;;;;;;27.50;26.40;;;19.10;61.20;;;;;;5454322;26;20516;-67
2024/04/17 07:18:21;;;;;;;27.80;26.50;;;19.20;61.30;;;;;;5454269;26;20688;-68
2024/04/17 07:20:50;;;;;;;27.47;26.37;;;19.20;61.30;;;;;;5453823;26;20475;-68
2024/04/17 07:23:16;;;;;;;27.90;26.80;;;19.10;61.20;;;;;;5453295;26;20226;-68
2024/04/17 07:25:45;;;;;;;28.20;27.10;;;19.20;61.30;;;;;;5453963;26;20895;-68
2024/04/17 07:28:13;;;;;;;27.47;26.30;;;19.20;61.30;;;;;;5454059;26;20563;-68
2024/04/17 07:30:42;;;;;;;27.83;26.73;;;19.20;61.20;;;;;;5453831;26;21081;-68
2024/04/17 07:33:08;;;;;;;27.17;26.07;;;19.20;61.10;;;;;;5453247;26;20460;-68
2024/04/17 07:35:36;;;;;;;27.33;26.23;;;19.20;61.00;;;;;;5453725;26;20519;-68
2024/04/17 07:38:02;;;;;;;28.87;27.67;;;19.20;60.90;;;;;;5453611;26;20592;-68
2024/04/17 07:40:30;;;;;;;27.30;26.20;;;19.20;60.80;;;;;;5453670;26;20463;-68
2024/04/17 07:42:56;;;;;;;27.00;26.00;;;19.20;60.80;;;;;;5438316;26;20256;-68
2024/04/17 07:45:26;;;;;;;27.80;26.70;;;19.20;60.60;;;;;;5453640;26;20828;-68
2024/04/17 07:47:52;;;;;;;28.30;27.20;;;19.20;60.60;;;;;;5453868;26;20276;-68
2024/04/17 07:50:21;;;;;;;28.30;27.20;;;19.20;60.60;;;;;;5453561;26;20471;-68
2024/04/17 07:52:46;;;;;;;26.53;25.40;;;19.20;60.50;;;;;;5452933;26;20752;-68
2024/04/17 07:55:15;;;;;;;27.70;26.60;;;19.20;60.50;;;;;;5453679;26;20456;-68
2024/04/17 07:57:41;;;;;;;28.33;27.23;;;19.30;60.60;;;;;;5453671;26;20222;-67
2024/04/17 08:00:10;;;;;;;27.43;26.23;;;19.20;60.40;;;;;;5453687;26;20941;-68
2024/04/17 08:02:39;;;;;;;26.53;25.53;;;19.20;60.30;;;;;;5452680;26;20261;-68
2024/04/17 08:05:09;;;;;;;26.43;25.43;;;19.20;60.30;;;;;;5453344;26;20460;-68
2024/04/17 08:07:35;;;;;;;27.00;25.80;;;19.20;60.30;;;;;;5453365;26;20605;-67
2024/04/17 08:10:03;;;;;;;27.33;26.20;;;19.20;60.30;;;;;;5453312;26;20468;-68
2024/04/17 08:12:29;;;;;;;27.73;26.37;;;19.20;60.30;;;;;;5452833;26;20276;-68
2024/04/17 08:14:58;;;;;;;27.30;26.10;;;19.20;60.30;;;;;;5453168;26;20464;-67
2024/04/17 08:17:23;;;;;;;26.40;25.30;;;19.20;60.30;;;;;;5452355;26;20720;-68
2024/04/17 08:19:54;;;;;;;27.00;25.80;;;19.20;60.20;;;;;;5453290;26;20532;-68
2024/04/17 08:22:20;;;;;;;27.30;26.20;;;19.20;60.20;;;;;;5452784;26;20226;-67
2024/04/17 08:24:48;;;;;;;26.83;25.73;;;19.20;60.20;;;;;;5453170;26;20528;-67
2024/04/17 08:27:14;;;;;;;27.17;26.07;;;19.20;60.20;;;;;;5453072;26;20268;-67
2024/04/17 08:29:42;;;;;;;28.20;27.00;;;19.20;60.20;;;;;;5452879;26;20468;-68
2024/04/17 08:32:08;;;;;;;27.30;26.20;;;19.20;60.10;;;;;;5453037;26;20226;-68
2024/04/17 08:34:36;;;;;;;27.03;25.80;;;19.20;60.10;;;;;;5452313;26;20580;-68
2024/04/17 08:37:05;;;;;;;27.10;26.00;;;19.20;60.10;;;;;;5452899;26;20222;-68
2024/04/17 08:39:34;;;;;;;27.20;26.00;;;19.10;60.00;;;;;;5452909;26;21019;-68
2024/04/17 08:42:06;;;;;;;27.63;26.53;;;19.10;59.90;;;;;;5438303;26;20460;-68
2024/04/17 08:44:37;;;;;;;27.27;26.17;;;19.10;59.90;;;;;;5452284;26;20814;-68
2024/04/17 08:47:03;;;;;;;26.20;25.20;;;19.10;59.90;;;;;;5438918;26;20969;-68
2024/04/17 08:49:34;;;;;;;27.60;26.50;;;19.10;59.90;;;;;;5452648;26;20519;-68
2024/04/17 08:52:05;;;;;;;27.30;26.00;;;19.10;59.90;;;;;;5438168;26;20467;-68
2024/04/17 08:54:34;;;;;;;26.10;25.10;;;19.10;59.90;;;;;;5452244;26;20800;-68
2024/04/17 08:57:00;;;;;;;26.13;25.13;;;19.10;59.80;;;;;;5438094;26;20580;-68
2024/04/17 08:59:29;;;;;;;26.83;25.73;;;19.10;59.80;;;;;;5452699;26;20838;-69
2024/04/17 09:01:58;;;;;;;25.87;24.77;;;19.20;59.90;;;;;;5452690;26;20278;-69
2024/04/17 09:04:28;;;;;;;25.57;24.57;;;19.10;59.70;;;;;;5452032;26;20595;-66
2024/04/17 09:06:54;;;;;;;26.63;25.53;;;19.10;59.70;;;;;;5452437;26;20526;-66
2024/04/17 09:09:26;;;;;;;26.20;25.10;;;19.10;59.70;;;;;;5452072;26;20468;-66
2024/04/17 09:11:55;;;;;;;25.70;24.70;;;19.10;59.70;;;;;;5452441;26;21106;-66
2024/04/17 09:14:21;;;;;;;25.60;24.60;;;19.10;59.70;;;;;;5451849;26;20857;-68
2024/04/17 09:16:49;;;;;;;25.90;24.80;;;19.10;59.70;;;;;;5452366;26;20520;-68
2024/04/17 09:19:15;;;;;;;26.60;25.50;;;19.10;59.70;;;;;;5452302;26;20736;-68
2024/04/17 09:21:43;;;;;;;24.73;23.73;;;19.10;59.70;;;;;;5452238;26;20464;-68
2024/04/17 09:24:09;;;;;;;25.87;24.87;;;19.10;59.70;;;;;;5451615;26;20278;-68
2024/04/17 09:26:40;;;;;;;25.90;24.90;;;19.10;59.80;;;;;;5452457;26;20463;-68
2024/04/17 09:29:06;;;;;;;25.60;24.50;;;19.10;59.70;;;;;;5452040;26;20234;-68
2024/04/17 09:31:34;;;;;;;25.90;24.83;;;19.10;59.70;;;;;;5452220;26;20527;-68
2024/04/17 09:34:01;;;;;;;25.60;24.60;;;19.10;59.60;;;;;;5451560;26;20815;-68
2024/04/17 09:36:29;;;;;;;26.03;24.93;;;19.10;59.60;;;;;;5452090;26;20478;-68
2024/04/17 09:38:56;;;;;;;25.60;24.50;;;19.10;59.60;;;;;;5452098;26;20516;-68
2024/04/17 09:41:25;;;;;;;25.60;24.60;;;19.10;59.60;;;;;;5451975;26;21070;-68
2024/04/17 09:43:57;;;;;;;25.60;24.60;;;19.10;59.50;;;;;;5451494;26;20511;-68
2024/04/17 09:46:28;;;;;;;26.27;25.17;;;19.20;59.60;;;;;;5451979;26;20510;-68
2024/04/17 09:48:57;;;;;;;25.80;24.80;;;19.10;59.50;;;;;;5451862;26;20527;-68
2024/04/17 09:51:28;;;;;;;25.60;24.50;;;19.10;59.50;;;;;;5451884;26;20578;-69
2024/04/17 09:53:56;;;;;;;26.10;25.00;;;19.20;59.60;;;;;;5451233;26;20467;-68
2024/04/17 09:56:25;;;;;;;25.00;24.00;;;19.10;59.50;;;;;;5451917;26;21181;-69
2024/04/17 09:58:56;;;;;;;25.50;24.50;;;19.10;59.50;;;;;;5451627;26;20464;-69
2024/04/17 10:01:25;;;;;;;24.77;23.77;;;19.20;59.60;;;;;;5452086;26;20463;-69
2024/04/17 10:03:53;;;;;;;25.87;24.70;;;19.20;59.50;;;;;;5451168;26;20518;-69
2024/04/17 10:06:23;;;;;;;24.97;23.97;;;19.20;59.50;;;;;;5451740;26;20581;-67
2024/04/17 10:08:50;;;;;;;25.30;24.20;;;19.20;59.50;;;;;;5451287;26;20479;-65
2024/04/17 10:11:19;;;;;;;25.00;24.00;;;19.20;60.60;;;;;;5450567;26;20471;-66
2024/04/17 10:13:48;;;;;;;24.37;23.37;;;19.40;62.10;;;;;;5450699;26;20478;-66
2024/04/17 10:16:20;;;;;;;23.90;22.90;;;19.50;64.60;;;;;;5451702;26;20511;-66
2024/04/17 10:18:46;;;;;;;24.37;23.27;;;19.60;64.80;;;;;;5451165;26;20463;-66
2024/04/17 10:21:20;;;;;;;24.50;23.50;;;19.70;65.60;;;;;;5451418;26;20522;-66
2024/04/17 10:23:56;;;;;;;25.37;24.27;;;19.80;65.60;;;;;;5451310;26;20507;-66
2024/04/17 10:26:24;;;;;;;26.43;25.23;;;19.90;65.30;;;;;;5451340;26;21060;-67
2024/04/17 10:28:51;;;;;;;24.97;23.90;;;19.90;65.00;;;;;;5451120;26;20475;-67
2024/04/17 10:31:22;;;;;;;25.67;24.57;;;20.00;64.60;;;;;;5451061;26;20460;-68
2024/04/17 10:33:47;;;;;;;25.10;24.00;;;20.00;64.90;;;;;;5451041;26;20467;-66
2024/04/17 10:36:16;;;;;;;25.70;24.60;;;20.20;65.60;;;;;;5450709;26;20460;-64
2024/04/17 10:38:42;;;;;;;24.80;23.80;;;20.20;64.40;;;;;;5450376;26;20284;-67
2024/04/17 10:41:14;;;;;;;25.20;24.20;;;20.30;64.50;;;;;;5449691;26;20572;-68
2024/04/17 10:43:40;;;;;;;25.17;24.03;;;20.30;64.40;;;;;;5450381;26;20459;-65
2024/04/17 10:46:10;;;;;;;24.97;23.87;;;20.40;64.10;;;;;;5450559;26;20526;-64
2024/04/17 10:48:45;;;;;;;25.33;24.30;;;20.40;63.70;;;;;;5444217;26;20281;-70
2024/04/17 10:51:17;;;;;;;25.83;24.73;;;20.40;64.40;;;;;;5438493;26;20506;-69
2024/04/17 10:53:45;;;;;;;25.87;24.80;;;20.30;64.40;;;;;;5450435;26;20519;-70
2024/04/17 10:56:14;;;;;;;26.00;24.87;;;20.20;64.10;;;;;;5450919;26;20846;-70
2024/04/17 10:58:41;;;;;;;25.60;24.60;;;20.10;63.80;;;;;;5450819;26;20464;-70
2024/04/17 11:01:11;;;;;;;25.60;24.50;;;20.00;63.80;;;;;;5436434;26;21103;-70
2024/04/17 11:03:38;;;;;;;26.83;25.73;;;20.00;63.90;;;;;;5450202;26;20527;-69
2024/04/17 11:06:10;;;;;;;26.70;25.43;;;19.90;63.80;;;;;;5450541;26;20841;-70
2024/04/17 11:08:39;;;;;;;25.30;24.20;;;19.90;63.70;;;;;;5503343;20;20532;-64
2024/04/17 11:11:08;;;;;;;26.13;25.03;;;19.80;63.70;;;;;;5486842;26;20465;-63
2024/04/17 11:13:40;;;;;;;25.23;24.13;;;19.80;63.60;;;;;;5486416;26;20591;-63
2024/04/17 11:16:09;;;;;;;25.37;24.27;;;19.80;63.60;;;;;;5486853;26;21011;-63
2024/04/17 11:18:35;;;;;;;24.90;23.90;;;19.70;63.30;;;;;;5486717;26;20465;-63
2024/04/17 11:21:03;;;;;;;25.10;24.10;;;19.80;63.30;;;;;;5466970;26;20530;-63
2024/04/17 11:23:39;;;;;;;25.80;24.70;;;19.70;63.10;;;;;;5465047;26;20842;-64
2024/04/17 11:26:08;;;;;;;26.00;24.90;;;19.70;63.00;;;;;;5471264;26;20453;-63
2024/04/17 11:28:34;;;;;;;25.27;24.07;;;19.70;62.80;;;;;;5471513;26;20462;-63
2024/04/17 11:31:02;;;;;;;27.17;25.97;;;19.70;62.70;;;;;;5467095;26;20584;-63
2024/04/17 11:33:29;;;;;;;25.40;24.30;;;19.70;62.60;;;;;;5464762;26;20318;-63
2024/04/17 11:36:06;;;;;;;24.80;23.70;;;19.70;62.60;;;;;;5468556;26;20475;-63
2024/04/17 11:38:32;;;;;;;26.00;24.80;;;19.60;62.40;;;;;;5471337;26;20465;-64
2024/04/17 11:41:03;;;;;;;26.83;25.63;;;19.60;62.30;;;;;;5467289;26;20473;-63
2024/04/17 11:43:29;;;;;;;25.50;24.40;;;19.60;62.30;;;;;;5464754;26;20463;-63
2024/04/17 11:45:57;;;;;;;25.50;24.50;;;19.60;62.10;;;;;;5468196;26;20456;-63
2024/04/17 11:48:23;;;;;;;24.97;23.97;;;19.60;62.10;;;;;;5470963;26;20653;-63
2024/04/17 11:50:52;;;;;;;24.80;23.80;;;19.60;62.10;;;;;;5469831;26;20583;-63
2024/04/17 11:53:17;;;;;;;25.57;24.57;;;19.70;62.30;;;;;;5467657;26;20340;-63
2024/04/17 11:55:46;;;;;;;26.00;24.90;;;19.70;62.20;;;;;;5468856;26;20981;-63
2024/04/17 11:58:14;;;;;;;25.67;24.57;;;19.70;62.20;;;;;;5474673;26;20267;-63
2024/04/17 12:00:43;;;;;;;26.00;24.90;;;19.70;61.90;;;;;;5474823;26;20473;-64
2024/04/17 12:03:09;;;;;;;26.37;25.27;;;19.70;61.90;;;;;;5453134;26;20514;-63
2024/04/17 12:05:38;;;;;;;26.47;25.27;;;19.70;62.00;;;;;;5468459;26;20471;-63
2024/04/17 12:08:04;;;;;;;26.77;25.67;;;19.70;61.50;;;;;;5473291;26;20715;-64
2024/04/17 12:10:33;;;;;;;26.37;25.37;;;19.70;61.40;;;;;;5474425;26;20824;-63
2024/04/17 12:12:59;;;;;;;26.27;25.23;;;19.70;62.10;;;;;;5470302;26;20847;-63
2024/04/17 12:15:30;;;;;;;26.43;25.33;;;19.70;61.20;;;;;;5468084;26;20467;-64
2024/04/17 12:17:55;;;;;;;27.90;26.70;;;19.70;61.20;;;;;;5471043;26;20294;-64
2024/04/17 12:20:24;;;;;;;30.43;29.23;;;19.70;61.10;;;;;;5474495;26;20555;-63
2024/04/17 12:22:49;;;;;;;26.23;25.03;;;19.70;61.50;;;;;;5472480;26;20271;-63
2024/04/17 12:28:02;;;;;;;25.10;24.10;;;19.70;61.00;;;;;;5474458;26;20346;-63
2024/04/17 12:30:33;;;;;;;25.60;24.50;;;19.70;60.90;;;;;;5474289;26;20470;-64
2024/04/17 12:33:01;;;;;;;26.60;25.40;;;19.70;60.80;;;;;;5470304;26;20458;-63
2024/04/17 12:35:29;;;;;;;26.17;25.07;;;19.70;60.70;;;;;;5467938;26;20467;-63